Time;durP1;ratioP1;P1;durP2;ratioP2;P2;SDS_P1;SDS_P2;PMS_P1;PMS_P2;Temp;Humidity;BMP_temperature;BMP_pressure;BME280_temperature;BME280_humidity;BME280_pressure;Samples;Min_cycle;Max_cycle;Signal;HPM_P1;HPM_P2
2022/06/11 00:02:16;;;;;;;;;;;;;;;16.59;55.62;98597.28;5099193;28;19919;-52
2022/06/11 00:05:05;;;;;;;;;;;;;;;16.40;56.07;98600.47;5106193;28;19920;-52
2022/06/11 00:07:54;;;;;;;;;;;;;;;16.20;56.68;98604.00;5106742;28;20299;-53
2022/06/11 00:10:42;;;;;;;;;;;;;;;16.36;55.71;98599.56;5101371;28;20118;-50
2022/06/11 00:16:44;;;;;;;;;;;;;;;16.17;56.96;98610.16;5104268;28;20779;-52
2022/06/11 00:19:33;;;;;;;;;;;;;;;16.07;57.06;98608.56;5105161;28;19924;-53
2022/06/11 00:22:47;;;;;;;;;;;;;;;15.98;57.38;98605.91;5102249;28;20034;-53
2022/06/11 00:25:35;;;;;;;;;;;;;;;15.95;57.28;98605.75;5105891;28;19927;-53
2022/06/11 00:28:24;;;;;;;;;;;;;;;16.05;56.89;98604.56;5106085;28;20213;-53
2022/06/11 00:31:12;;;;;;;;;;;;;;;16.03;57.02;98607.63;5083570;28;20308;-53
2022/06/11 00:34:02;;;;;;;;;;;;;;;15.85;57.37;98606.91;5092604;28;19943;-55
2022/06/11 00:36:56;;;;;;;;;;;;;;;15.89;57.09;98605.13;5102318;28;19924;-51
2022/06/11 00:39:44;;;;;;;;;;;;;;;15.92;57.09;98607.19;5092274;28;19939;-53
2022/06/11 00:42:34;;;;;;;;;;;;;;;15.81;57.15;98602.41;5091462;28;20390;-52
2022/06/11 00:45:48;;;;;;;;;;;;;;;15.83;57.22;98600.16;5087234;28;19920;-53
2022/06/11 00:48:38;;;;;;;;;;;;;;;15.88;57.19;98594.50;5090002;28;19926;-53
2022/06/11 00:51:28;;;;;;;;;;;;;;;15.74;57.48;98599.38;5085609;28;20284;-53
2022/06/11 00:54:18;;;;;;;;;;;;;;;15.83;57.37;98594.69;5097362;28;19928;-53
2022/06/11 00:57:07;;;;;;;;;;;;;;;15.77;57.42;98594.06;5099663;28;20008;-51
2022/06/11 00:59:57;;;;;;;;;;;;;;;15.91;57.10;98599.31;5082345;28;19924;-53
2022/06/11 01:02:46;;;;;;;;;;;;;;;16.08;56.47;98593.72;5083190;28;19920;-53
2022/06/11 01:05:58;;;;;;;;;;;;;;;15.75;57.33;98599.06;5092952;28;19924;-52
2022/06/11 01:08:52;;;;;;;;;;;;;;;15.56;57.91;98593.16;5082682;28;19920;-53
2022/06/11 01:11:46;;;;;;;;;;;;;;;15.55;57.92;98592.31;5086435;28;20158;-53
2022/06/11 01:14:38;;;;;;;;;;;;;;;15.48;58.11;98591.22;5093248;28;19927;-50
2022/06/11 01:17:27;;;;;;;;;;;;;;;15.51;57.98;98588.66;5089967;28;20022;-52
2022/06/11 01:20:25;;;;;;;;;;;;;;;15.39;58.09;98583.03;5100438;28;19924;-52
2022/06/11 01:23:35;;;;;;;;;;;;;;;15.43;57.67;98578.50;5100333;28;19920;-51
2022/06/11 01:26:43;;;;;;;;;;;;;;;15.46;57.59;98595.09;5088424;28;19931;-53
2022/06/11 01:29:49;;;;;;;;;;;;;;;15.33;58.16;98596.09;5086752;28;19974;-52
2022/06/11 01:32:47;;;;;;;;;;;;;;;15.64;56.98;98590.38;5101590;28;19920;-53
2022/06/11 01:35:48;;;;;;;;;;;;;;;15.37;58.01;98593.50;5087710;28;20336;-52
2022/06/11 01:38:37;;;;;;;;;;;;;;;15.39;58.05;98592.06;5102654;28;19927;-53
2022/06/11 01:41:28;;;;;;;;;;;;;;;15.31;58.41;98590.16;5099612;28;19923;-53
2022/06/11 01:44:19;;;;;;;;;;;;;;;15.17;58.63;98590.31;5101088;28;19920;-53
2022/06/11 01:47:08;;;;;;;;;;;;;;;15.40;57.99;98595.59;5095224;28;20276;-52
2022/06/11 01:49:59;;;;;;;;;;;;;;;15.32;58.34;98589.00;5100467;28;20423;-53
2022/06/11 01:52:53;;;;;;;;;;;;;;;15.23;58.52;98590.16;5097394;28;20271;-53
2022/06/11 01:55:45;;;;;;;;;;;;;;;15.18;58.85;98583.75;5082073;28;20225;-52
2022/06/11 01:58:38;;;;;;;;;;;;;;;15.15;59.04;98584.38;5081885;28;19920;-53
2022/06/11 02:01:54;;;;;;;;;;;;;;;14.92;59.69;98581.03;5089442;28;19927;-53
2022/06/11 02:04:48;;;;;;;;;;;;;;;14.93;59.62;98587.31;5102845;28;20388;-53
2022/06/11 02:07:41;;;;;;;;;;;;;;;14.92;59.70;98586.50;5102467;28;19920;-54
2022/06/11 02:10:30;;;;;;;;;;;;;;;14.88;59.57;98580.06;5092639;28;19931;-53
2022/06/11 02:13:19;;;;;;;;;;;;;;;14.89;59.50;98580.88;5084285;28;19931;-54
2022/06/11 02:16:13;;;;;;;;;;;;;;;14.98;59.06;98589.09;5097837;28;19920;-52
2022/06/11 02:19:08;;;;;;;;;;;;;;;15.08;58.90;98588.75;5097163;28;19919;-53
2022/06/11 02:21:58;;;;;;;;;;;;;;;14.92;59.19;98596.66;5101794;28;19926;-54
2022/06/11 02:24:49;;;;;;;;;;;;;;;14.91;59.20;98601.31;5097567;28;20026;-52
2022/06/11 02:27:37;;;;;;;;;;;;;;;14.97;59.28;98599.22;5100675;28;19930;-52
2022/06/11 02:33:41;;;;;;;;;;;;;;;14.97;59.04;98599.22;5095517;28;20013;-53
2022/06/11 02:36:55;;;;;;;;;;;;;;;14.79;59.36;98600.34;5101385;28;20022;-51
2022/06/11 02:39:44;;;;;;;;;;;;;;;14.59;60.04;98599.84;5095778;28;20292;-54
2022/06/11 02:42:34;;;;;;;;;;;;;;;14.47;60.38;98596.94;5091543;28;19928;-52
2022/06/11 02:45:23;;;;;;;;;;;;;;;14.66;59.61;98605.66;5085563;28;19969;-49
2022/06/11 02:48:11;;;;;;;;;;;;;;;14.51;59.98;98602.59;5092456;28;20007;-52
2022/06/11 02:50:59;;;;;;;;;;;;;;;14.47;59.94;98613.34;5090035;28;19955;-53
2022/06/11 02:53:53;;;;;;;;;;;;;;;14.63;59.79;98614.50;5092373;28;19927;-53
2022/06/11 02:56:41;;;;;;;;;;;;;;;14.51;59.98;98608.06;5100651;28;19923;-53
2022/06/11 02:59:31;;;;;;;;;;;;;;;14.46;60.13;98608.97;5087764;28;19959;-52
2022/06/11 03:02:21;;;;;;;;;;;;;;;14.34;60.48;98614.28;5094938;28;20322;-52
2022/06/11 03:05:10;;;;;;;;;;;;;;;14.31;60.40;98610.22;5094124;28;19926;-53
2022/06/11 03:07:59;;;;;;;;;;;;;;;14.20;60.78;98619.06;5097230;28;20032;-53
2022/06/11 03:10:54;;;;;;;;;;;;;;;14.24;60.63;98617.31;5087908;28;20286;-52
2022/06/11 03:13:43;;;;;;;;;;;;;;;14.37;60.63;98619.88;5075916;28;20129;-52
2022/06/11 03:16:57;;;;;;;;;;;;;;;14.40;60.50;98622.00;5081424;28;20276;-52
2022/06/11 03:19:45;;;;;;;;;;;;;;;14.41;59.85;98615.41;5081230;28;19986;-53
2022/06/11 03:22:33;;;;;;;;;;;;;;;14.34;60.10;98625.22;5097500;28;19920;-53
2022/06/11 03:25:24;;;;;;;;;;;;;;;14.28;60.31;98626.47;5100669;28;19931;-51
2022/06/11 03:28:19;;;;;;;;;;;;;;;14.09;60.87;98621.28;5094744;28;20016;-55
2022/06/11 03:31:10;;;;;;;;;;;;;;;14.02;61.19;98626.41;5096217;28;19930;-52
2022/06/11 03:34:00;;;;;;;;;;;;;;;14.23;60.34;98624.69;5089378;28;20104;-51
2022/06/11 03:36:52;;;;;;;;;;;;;;;14.08;60.80;98617.75;5091362;28;19920;-52
2022/06/11 03:39:41;;;;;;;;;;;;;;;14.11;60.79;98625.31;5087054;28;19921;-53
2022/06/11 03:42:29;;;;;;;;;;;;;;;14.24;60.40;98628.22;5088446;28;19935;-51
2022/06/11 03:45:18;;;;;;;;;;;;;;;14.31;60.09;98631.28;5091964;28;20357;-53
2022/06/11 03:48:06;;;;;;;;;;;;;;;14.30;60.03;98635.16;5085867;28;19970;-52
2022/06/11 03:50:57;;;;;;;;;;;;;;;14.27;60.10;98633.03;5092760;28;20403;-52
2022/06/11 03:56:59;;;;;;;;;;;;;;;14.11;60.97;98628.03;5087790;28;19955;-53
2022/06/11 03:59:48;;;;;;;;;;;;;;;14.28;60.35;98638.22;5090634;28;19939;-52
2022/06/11 04:02:36;;;;;;;;;;;;;;;14.23;60.44;98637.56;5085627;28;20372;-52
2022/06/11 04:05:24;;;;;;;;;;;;;;;14.26;60.40;98634.19;5099360;28;20363;-52
2022/06/11 04:08:14;;;;;;;;;;;;;;;14.46;59.71;98647.25;5088902;28;19923;-53
2022/06/11 04:11:03;;;;;;;;;;;;;;;14.42;60.02;98649.00;5089760;28;20030;-52
2022/06/11 04:17:06;;;;;;;;;;;;;;;14.51;59.79;98646.34;5087058;28;19931;-52
2022/06/11 04:19:54;;;;;;;;;;;;;;;14.53;59.38;98653.06;5099582;28;19920;-53
2022/06/11 04:22:43;;;;;;;;;;;;;;;14.48;59.65;98655.97;5099500;28;19950;-52
2022/06/11 04:25:34;;;;;;;;;;;;;;;14.41;59.98;98655.59;5094824;28;19926;-52
2022/06/11 04:28:23;;;;;;;;;;;;;;;14.50;59.75;98651.00;5097383;28;19931;-48
2022/06/11 04:31:15;;;;;;;;;;;;;;;14.65;59.73;98644.28;5092903;28;19928;-52
2022/06/11 04:34:04;;;;;;;;;;;;;;;14.77;59.26;98649.09;5089606;28;19924;-52
2022/06/11 04:36:53;;;;;;;;;;;;;;;14.65;59.58;98653.28;5087463;28;19932;-48
2022/06/11 04:39:42;;;;;;;;;;;;;;;14.41;60.30;98650.94;5103844;28;19927;-53
2022/06/11 04:42:32;;;;;;;;;;;;;;;14.77;59.21;98646.38;5103916;28;19924;-53
2022/06/11 04:45:22;;;;;;;;;;;;;;;14.71;59.59;98640.25;5101176;28;19919;-54
2022/06/11 04:48:36;;;;;;;;;;;;;;;14.56;60.03;98646.97;5095294;28;19920;-53
2022/06/11 04:51:29;;;;;;;;;;;;;;;14.75;59.78;98645.88;5098250;28;19935;-53
2022/06/11 04:54:17;;;;;;;;;;;;;;;14.80;59.65;98651.97;5085680;28;19924;-53
2022/06/11 04:57:06;;;;;;;;;;;;;;;14.97;58.96;98648.47;5097525;28;20019;-52
2022/06/11 04:59:55;;;;;;;;;;;;;;;15.02;59.08;98648.31;5091369;28;20171;-53
2022/06/11 05:02:43;;;;;;;;;;;;;;;14.99;59.52;98656.34;5099344;28;20032;-51
2022/06/11 05:08:47;;;;;;;;;;;;;;;15.19;58.85;98661.19;5091803;28;19931;-53
2022/06/11 05:12:00;;;;;;;;;;;;;;;15.08;59.73;98660.69;5103203;28;20553;-53
2022/06/11 05:14:53;;;;;;;;;;;;;;;15.19;59.16;98663.91;5103481;28;19923;-54
2022/06/11 05:17:48;;;;;;;;;;;;;;;15.39;58.77;98659.69;5101105;28;19950;-53
2022/06/11 05:20:36;;;;;;;;;;;;;;;15.32;59.10;98662.13;5100966;28;19927;-52
2022/06/11 05:23:24;;;;;;;;;;;;;;;15.55;58.81;98660.78;5100654;28;19923;-54
2022/06/11 05:26:14;;;;;;;;;;;;;;;15.60;58.18;98662.56;5096516;28;19924;-54
2022/06/11 05:29:02;;;;;;;;;;;;;;;15.70;58.18;98668.50;5098605;28;19919;-54
2022/06/11 05:31:51;;;;;;;;;;;;;;;15.61;58.39;98667.72;5088386;28;20257;-52
2022/06/11 05:34:47;;;;;;;;;;;;;;;15.66;58.53;98675.00;5088777;28;19920;-53
2022/06/11 05:37:35;;;;;;;;;;;;;;;15.96;57.84;98678.59;5089407;28;20041;-53
2022/06/11 05:40:55;;;;;;;;;;;;;;;15.95;58.11;98679.72;5092437;28;20272;-54
2022/06/11 05:43:44;;;;;;;;;;;;;;;16.15;57.31;98687.25;5091575;28;19924;-51
2022/06/11 05:46:34;;;;;;;;;;;;;;;16.05;57.25;98681.31;5094477;28;20624;-53
2022/06/11 05:49:24;;;;;;;;;;;;;;;15.96;57.59;98681.34;5089026;28;20378;-51
2022/06/11 05:52:15;;;;;;;;;;;;;;;16.18;56.68;98681.09;5088248;28;20275;-53
2022/06/11 05:55:04;;;;;;;;;;;;;;;16.19;57.04;98679.97;5098124;28;20155;-54
2022/06/11 05:57:53;;;;;;;;;;;;;;;16.56;55.64;98685.72;5099981;28;19927;-50
2022/06/11 06:00:42;;;;;;;;;;;;;;;16.65;55.88;98677.47;5094004;28;20002;-54
2022/06/11 06:03:30;;;;;;;;;;;;;;;16.65;55.70;98677.47;5096967;28;20252;-54
2022/06/11 06:06:19;;;;;;;;;;;;;;;16.86;55.96;98683.81;5099720;28;19976;-53
2022/06/11 06:09:34;;;;;;;;;;;;;;;17.02;55.70;98681.25;5088227;28;19920;-54
2022/06/11 06:12:23;;;;;;;;;;;;;;;17.25;54.06;98670.72;5091249;28;19928;-50
2022/06/11 06:15:14;;;;;;;;;;;;;;;17.29;54.43;98679.91;5091761;28;19991;-54
2022/06/11 06:18:28;;;;;;;;;;;;;;;17.10;55.35;98683.16;5088259;28;20449;-52
2022/06/11 06:21:18;;;;;;;;;;;;;;;17.17;55.58;98671.63;5092201;28;20383;-54
2022/06/11 06:24:06;;;;;;;;;;;;;;;17.40;55.37;98680.28;5094640;28;19923;-52
2022/06/11 06:26:57;;;;;;;;;;;;;;;17.73;53.83;98689.34;5083849;28;19946;-53
2022/06/11 06:29:46;;;;;;;;;;;;;;;17.63;53.64;98678.78;5093032;28;19934;-54
2022/06/11 06:32:35;;;;;;;;;;;;;;;17.51;54.71;98681.47;5090093;28;20323;-54
2022/06/11 06:35:24;;;;;;;;;;;;;;;17.46;54.52;98682.50;5100195;28;19920;-52
2022/06/11 06:38:38;;;;;;;;;;;;;;;17.46;54.39;98684.44;5089491;28;19955;-54
2022/06/11 06:41:53;;;;;;;;;;;;;;;17.58;55.30;98684.50;5090471;28;20024;-54
2022/06/11 06:44:43;;;;;;;;;;;;;;;17.71;53.67;98688.88;5095620;28;19924;-53
2022/06/11 06:47:31;;;;;;;;;;;;;;;17.76;53.35;98688.69;5092895;28;20262;-53
2022/06/11 06:50:20;;;;;;;;;;;;;;;18.07;52.36;98684.63;5099196;28;19958;-53
2022/06/11 06:53:09;;;;;;;;;;;;;;;18.37;51.86;98700.91;5087291;28;19950;-54
2022/06/11 06:55:59;;;;;;;;;;;;;;;18.43;51.79;98688.53;5083195;28;20024;-53
2022/06/11 06:58:47;;;;;;;;;;;;;;;18.70;50.93;98698.91;5085128;28;20294;-54
2022/06/11 07:01:37;;;;;;;;;;;;;;;18.70;51.12;98690.63;5078194;28;19943;-53
2022/06/11 07:04:26;;;;;;;;;;;;;;;18.80;51.43;98692.09;5089948;28;20319;-51
2022/06/11 07:07:18;;;;;;;;;;;;;;;19.28;50.17;98693.94;5087179;28;19930;-53
2022/06/11 07:10:07;;;;;;;;;;;;;;;19.20;51.16;98700.38;5090820;28;19968;-54
2022/06/11 07:12:56;;;;;;;;;;;;;;;19.34;50.52;98700.00;5087514;28;19954;-53
2022/06/11 07:15:44;;;;;;;;;;;;;;;19.49;50.55;98690.16;5089298;28;19928;-54
2022/06/11 07:18:35;;;;;;;;;;;;;;;19.87;49.92;98678.66;5089184;28;19992;-54
2022/06/11 07:21:24;;;;;;;;;;;;;;;20.02;48.19;98688.88;5091004;28;20336;-53
2022/06/11 07:24:37;;;;;;;;;;;;;;;20.17;47.98;98687.28;5098793;28;19960;-53
2022/06/11 07:27:29;;;;;;;;;;;;;;;20.23;48.17;98685.84;5077922;28;20146;-54
2022/06/11 07:30:20;;;;;;;;;;;;;;;20.19;48.05;98687.75;5095714;28;20026;-54
2022/06/11 07:33:33;;;;;;;;;;;;;;;20.27;47.87;98686.75;5094488;28;20074;-53
2022/06/11 07:36:26;;;;;;;;;;;;;;;20.43;48.79;98684.00;5093526;28;20036;-54
2022/06/11 07:39:39;;;;;;;;;;;;;;;20.53;46.78;98674.41;5091738;28;19924;-53
2022/06/11 07:42:28;;;;;;;;;;;;;;;20.57;46.50;98672.53;5098193;28;19919;-53
2022/06/11 07:45:16;;;;;;;;;;;;;;;20.79;47.39;98668.28;5094145;28;19927;-53
2022/06/11 07:48:05;;;;;;;;;;;;;;;20.87;47.46;98670.81;5092469;28;20403;-54
2022/06/11 07:50:56;;;;;;;;;;;;;;;21.04;44.89;98672.41;5099160;28;19924;-50
2022/06/11 07:53:46;;;;;;;;;;;;;;;20.85;46.38;98667.63;5088705;28;19924;-54
2022/06/11 07:57:00;;;;;;;;;;;;;;;20.93;45.76;98663.88;5069891;28;19920;-54
2022/06/11 07:59:53;;;;;;;;;;;;;;;21.18;45.23;98669.91;5096668;28;19931;-50
2022/06/11 08:02:42;;;;;;;;;;;;;;;21.23;45.03;98670.81;5083793;28;19931;-53
2022/06/11 08:05:32;;;;;;;;;;;;;;;21.13;45.44;98667.44;5089009;28;19924;-54
2022/06/11 08:08:49;;;;;;;;;;;;;;;21.20;44.95;98664.06;5097276;28;20470;-54
2022/06/11 08:11:38;;;;;;;;;;;;;;;21.19;43.75;98665.19;5092166;28;20448;-54
2022/06/11 08:14:26;;;;;;;;;;;;;;;21.48;42.73;98666.63;5089735;28;19928;-54
2022/06/11 08:17:15;;;;;;;;;;;;;;;21.70;43.25;98659.53;5095356;28;19920;-54
2022/06/11 08:20:10;;;;;;;;;;;;;;;21.92;42.75;98664.25;5095809;28;20030;-54
2022/06/11 08:22:58;;;;;;;;;;;;;;;21.90;41.97;98665.81;5090596;28;19977;-53
2022/06/11 08:25:48;;;;;;;;;;;;;;;21.81;41.97;98671.56;5094603;28;20098;-54
2022/06/11 08:28:37;;;;;;;;;;;;;;;22.07;41.18;98659.78;5091967;28;20472;-54
2022/06/11 08:31:25;;;;;;;;;;;;;;;21.90;41.03;98666.63;5090840;28;20470;-53
2022/06/11 08:34:14;;;;;;;;;;;;;;;22.02;41.33;98667.59;5100646;28;19955;-53
2022/06/11 08:37:03;;;;;;;;;;;;;;;22.36;39.26;98671.34;5093995;28;20006;-53
2022/06/11 08:39:51;;;;;;;;;;;;;;;22.20;39.53;98665.94;5095453;28;19924;-53
2022/06/11 08:42:42;;;;;;;;;;;;;;;22.22;39.79;98660.88;5092993;28;19924;-54
2022/06/11 08:45:36;;;;;;;;;;;;;;;22.05;40.07;98659.38;5096056;28;20207;-54
2022/06/11 08:48:38;;;;;;;;;;;;;;;22.08;39.95;98655.06;5103748;28;19920;-56
2022/06/11 08:51:28;;;;;;;;;;;;;;;21.95;39.55;98666.31;5102937;28;20097;-56
2022/06/11 08:54:41;;;;;;;;;;;;;;;22.12;39.12;98653.19;5083857;28;19974;-54
2022/06/11 08:57:33;;;;;;;;;;;;;;;22.22;39.38;98652.56;5083906;28;19965;-55
2022/06/11 09:00:25;;;;;;;;;;;;;;;22.40;39.12;98650.84;5083589;28;19924;-53
2022/06/11 09:03:35;;;;;;;;;;;;;;;22.53;39.72;98657.00;5082928;28;19928;-54
2022/06/11 09:06:49;;;;;;;;;;;;;;;22.51;39.22;98653.00;5087436;28;19924;-55
2022/06/11 09:09:45;;;;;;;;;;;;;;;22.39;38.90;98652.03;5092230;28;19920;-54
2022/06/11 09:12:40;;;;;;;;;;;;;;;22.30;38.67;98639.63;5090519;28;19924;-55
2022/06/11 09:15:34;;;;;;;;;;;;;;;22.42;39.97;98642.19;5099501;28;19926;-54
2022/06/11 09:18:35;;;;;;;;;;;;;;;22.87;37.46;98641.25;5099253;28;19932;-50
2022/06/11 09:21:28;;;;;;;;;;;;;;;22.81;37.99;98642.75;5102771;28;20011;-54
2022/06/11 09:24:22;;;;;;;;;;;;;;;22.75;39.52;98649.81;5093826;28;19934;-53
2022/06/11 09:27:14;;;;;;;;;;;;;;;22.94;39.23;98643.34;5100971;28;19920;-54
2022/06/11 09:30:05;;;;;;;;;;;;;;;23.11;36.97;98633.66;5100736;28;20580;-54
2022/06/11 09:33:02;;;;;;;;;;;;;;;22.93;38.36;98633.44;5097418;28;20364;-53
2022/06/11 09:35:53;;;;;;;;;;;;;;;23.07;37.73;98643.94;5096688;28;19920;-53
2022/06/11 09:38:43;;;;;;;;;;;;;;;23.09;37.82;98638.81;5100952;28;20352;-55
2022/06/11 09:48:17;;;;;;;;;;;;;;;22.92;39.44;98645.72;5097322;28;19924;-53
2022/06/11 09:51:11;;;;;;;;;;;;;;;23.08;39.88;98645.53;5088149;28;20394;-54
2022/06/11 09:57:21;;;;;;;;;;;;;;;23.04;36.35;98651.00;5104055;28;19927;-54
2022/06/11 10:00:13;;;;;;;;;;;;;;;23.42;35.52;98646.31;5084102;28;20375;-54
2022/06/11 10:03:07;;;;;;;;;;;;;;;23.58;34.89;98637.78;5101219;28;19924;-55
2022/06/11 10:06:01;;;;;;;;;;;;;;;23.48;36.13;98647.56;5097233;28;19924;-53
2022/06/11 10:08:51;;;;;;;;;;;;;;;23.65;35.83;98644.25;5096104;28;19920;-55
2022/06/11 10:11:48;;;;;;;;;;;;;;;23.72;35.19;98632.41;5099569;28;19920;-53
2022/06/11 10:14:40;;;;;;;;;;;;;;;23.49;36.10;98643.66;5102065;28;19931;-53
2022/06/11 10:17:30;;;;;;;;;;;;;;;23.26;36.94;98644.56;5094373;28;20299;-55
2022/06/11 10:20:21;;;;;;;;;;;;;;;23.11;37.15;98650.28;5100610;28;19934;-55
2022/06/11 10:23:17;;;;;;;;;;;;;;;22.95;37.71;98650.50;5098122;28;19927;-54
2022/06/11 10:26:11;;;;;;;;;;;;;;;22.89;37.63;98652.78;5087640;28;19920;-56
2022/06/11 10:29:02;;;;;;;;;;;;;;;22.96;37.99;98646.56;5098200;28;19919;-54
2022/06/11 10:31:52;;;;;;;;;;;;;;;23.11;36.63;98639.22;5093640;28;19932;-51
2022/06/11 10:34:41;;;;;;;;;;;;;;;23.19;36.16;98641.72;5099230;28;19963;-54
2022/06/11 10:40:52;;;;;;;;;;;;;;;22.84;37.22;98636.47;5102614;28;19919;-54
2022/06/11 10:44:33;;;;;;;;;;;;;;;22.75;37.14;98633.97;5094684;28;19920;-50
2022/06/11 10:47:47;;;;;;;;;;;;;;;22.85;37.21;98638.09;5094696;28;20279;-54
2022/06/11 10:50:37;;;;;;;;;;;;;;;22.74;37.14;98637.09;5098089;28;20018;-55
2022/06/11 10:53:31;;;;;;;;;;;;;;;22.83;37.91;98634.06;5090409;28;19927;-55
2022/06/11 10:56:21;;;;;;;;;;;;;;;22.93;38.17;98633.44;5085528;28;19924;-53
2022/06/11 10:59:35;;;;;;;;;;;;;;;22.97;37.34;98635.09;5096983;28;19982;-55
2022/06/11 11:02:27;;;;;;;;;;;;;;;22.93;37.14;98637.00;5094461;28;19924;-54
2022/06/11 11:05:18;;;;;;;;;;;;;;;23.11;37.46;98634.47;5095470;28;20016;-54
2022/06/11 11:08:06;;;;;;;;;;;;;;;23.12;37.08;98629.75;5099754;28;19926;-55
2022/06/11 11:10:56;;;;;;;;;;;;;;;23.43;35.99;98628.50;5097094;28;20004;-53
2022/06/11 11:13:45;;;;;;;;;;;;;;;23.50;35.50;98623.84;5092460;28;19981;-55
2022/06/11 11:16:37;;;;;;;;;;;;;;;23.34;36.43;98630.78;5086090;28;19924;-54
2022/06/11 11:22:55;;;;;;;;;;;;;;;22.99;36.10;98621.66;5071653;28;20010;-53
2022/06/11 11:25:44;;;;;;;;;;;;;;;23.04;37.01;98623.28;5098349;28;19933;-55
2022/06/11 11:28:36;;;;;;;;;;;;;;;22.83;36.98;98628.53;5097137;28;19924;-54
2022/06/11 11:31:25;;;;;;;;;;;;;;;22.89;37.92;98621.50;5090008;28;19924;-55
2022/06/11 11:34:24;;;;;;;;;;;;;;;22.86;36.98;98620.28;5086558;28;19932;-55
2022/06/11 11:37:23;;;;;;;;;;;;;;;23.05;37.26;98613.00;5081949;28;20391;-55
2022/06/11 11:40:25;;;;;;;;;;;;;;;23.01;37.56;98618.53;5091351;28;19955;-54
2022/06/11 11:43:13;;;;;;;;;;;;;;;23.31;36.88;98614.91;5095053;28;19923;-55
2022/06/11 11:46:03;;;;;;;;;;;;;;;23.44;36.57;98600.41;5098407;28;20266;-55
2022/06/11 11:48:53;;;;;;;;;;;;;;;23.42;36.76;98608.28;5092126;28;19919;-60
2022/06/11 11:51:46;;;;;;;;;;;;;;;23.58;36.24;98601.72;5093235;28;20413;-55
2022/06/11 11:54:37;;;;;;;;;;;;;;;23.64;36.13;98605.78;5096793;28;19927;-55
2022/06/11 11:57:54;;;;;;;;;;;;;;;23.60;35.59;98610.47;5082153;28;19920;-55
2022/06/11 12:00:44;;;;;;;;;;;;;;;23.52;35.75;98601.28;5091382;28;20150;-56
2022/06/11 12:03:37;;;;;;;;;;;;;;;23.31;36.68;98598.28;5092645;28;19920;-54
2022/06/11 12:06:29;;;;;;;;;;;;;;;23.34;36.48;98598.31;5095933;28;20262;-55
2022/06/11 12:09:21;;;;;;;;;;;;;;;23.32;36.57;98599.84;5076944;28;19951;-55
2022/06/11 12:12:14;;;;;;;;;;;;;;;23.36;36.74;98589.63;5088580;28;19932;-54
2022/06/11 12:15:15;;;;;;;;;;;;;;;23.42;36.31;98588.09;5082522;28;20132;-53
2022/06/11 12:18:28;;;;;;;;;;;;;;;23.69;35.44;98586.00;5086268;28;19932;-54
2022/06/11 12:21:20;;;;;;;;;;;;;;;23.90;35.24;98577.88;5079792;28;20372;-55
2022/06/11 12:24:10;;;;;;;;;;;;;;;24.08;34.68;98585.56;5090465;28;19926;-56
2022/06/11 12:27:03;;;;;;;;;;;;;;;23.83;35.07;98582.56;5106799;28;19926;-54
2022/06/11 12:29:52;;;;;;;;;;;;;;;23.84;35.02;98582.19;5099024;28;19931;-55
2022/06/11 12:32:41;;;;;;;;;;;;;;;23.81;35.87;98577.41;5094338;28;19934;-59
2022/06/11 12:35:32;;;;;;;;;;;;;;;23.79;37.00;98575.00;5096252;28;19976;-56
2022/06/11 12:38:24;;;;;;;;;;;;;;;23.68;36.72;98576.09;5099881;28;19927;-58
2022/06/11 12:41:17;;;;;;;;;;;;;;;23.66;40.16;98579.25;5100034;28;19920;-60
2022/06/11 12:44:20;;;;;;;;;;;;;;;23.49;39.67;98575.13;5110112;28;19920;-58
2022/06/11 12:50:49;;;;;;;;;;;;;;;23.89;38.54;98573.50;5082426;28;20419;-58
2022/06/11 12:53:43;;;;;;;;;;;;;;;24.18;34.61;98568.16;5081716;28;19931;-59
2022/06/11 12:56:45;;;;;;;;;;;;;;;24.16;34.26;98563.00;5084071;28;19924;-58
2022/06/11 12:59:39;;;;;;;;;;;;;;;24.07;37.27;98567.28;5083147;28;20391;-57
2022/06/11 13:02:41;;;;;;;;;;;;;;;23.88;38.66;98563.59;5082885;28;19924;-57
2022/06/11 13:05:35;;;;;;;;;;;;;;;23.63;36.95;98565.34;5089847;28;19935;-58
2022/06/11 13:08:35;;;;;;;;;;;;;;;23.63;36.55;98565.34;5087539;28;19978;-58
2022/06/11 13:11:26;;;;;;;;;;;;;;;23.47;41.05;98558.03;5084148;28;20227;-58
2022/06/11 13:14:22;;;;;;;;;;;;;;;23.85;38.45;98555.22;5101640;28;19920;-58
2022/06/11 13:17:13;;;;;;;;;;;;;;;23.88;38.63;98549.72;5101522;28;19920;-59
2022/06/11 13:20:32;;;;;;;;;;;;;;;23.99;36.10;98552.56;5102629;28;19947;-58
2022/06/11 13:23:23;;;;;;;;;;;;;;;24.02;35.78;98560.94;5098449;28;19920;-58
2022/06/11 13:26:12;;;;;;;;;;;;;;;23.58;41.24;98557.34;5094079;28;20006;-55
2022/06/11 13:29:09;;;;;;;;;;;;;;;23.85;39.90;98549.69;5096471;28;19924;-57
2022/06/11 13:31:59;;;;;;;;;;;;;;;24.09;37.06;98553.84;5096389;28;19920;-57
2022/06/11 13:34:54;;;;;;;;;;;;;;;24.14;37.23;98550.72;5084659;28;20006;-57
2022/06/11 13:38:07;;;;;;;;;;;;;;;24.08;37.01;98552.25;5087393;28;20269;-58
2022/06/11 13:40:59;;;;;;;;;;;;;;;23.74;37.03;98550.38;5099344;28;20021;-56
2022/06/11 13:44:18;;;;;;;;;;;;;;;23.44;41.07;98547.72;5054538;28;20379;-57
2022/06/11 13:47:13;;;;;;;;;;;;;;;23.40;41.83;98548.88;5055716;28;20284;-57
2022/06/11 13:50:29;;;;;;;;;;;;;;;23.41;41.51;98542.94;5060889;28;19967;-55
2022/06/11 13:56:50;;;;;;;;;;;;;;;23.34;41.15;98539.31;5049885;28;19920;-56
2022/06/11 13:59:48;;;;;;;;;;;;;;;23.65;39.21;98535.25;5047982;28;19925;-58
2022/06/11 14:03:00;;;;;;;;;;;;;;;23.49;40.77;98539.06;5054720;28;20369;-59
2022/06/11 14:05:50;;;;;;;;;;;;;;;23.52;40.68;98526.38;5062340;28;19925;-57
2022/06/11 14:09:06;;;;;;;;;;;;;;;23.44;41.21;98536.63;5052351;28;19932;-58
2022/06/11 14:11:55;;;;;;;;;;;;;;;23.42;41.06;98538.97;5056824;28;19967;-58
2022/06/11 14:14:43;;;;;;;;;;;;;;;23.57;40.68;98533.56;5054295;28;19928;-57
2022/06/11 14:17:59;;;;;;;;;;;;;;;23.49;40.74;98527.16;5049981;28;19929;-57
2022/06/11 14:20:48;;;;;;;;;;;;;;;23.78;39.65;98529.03;5052997;28;19932;-57
2022/06/11 14:23:44;;;;;;;;;;;;;;;23.73;39.63;98525.81;5035288;28;20034;-59
2022/06/11 14:26:50;;;;;;;;;;;;;;;23.59;40.44;98520.91;5040493;28;19920;-58
2022/06/11 14:29:39;;;;;;;;;;;;;;;23.60;40.19;98522.50;5052148;28;19920;-58
2022/06/11 14:32:29;;;;;;;;;;;;;;;23.64;40.58;98517.81;5059633;28;20722;-58
2022/06/11 14:35:21;;;;;;;;;;;;;;;23.82;40.00;98517.97;5041545;28;19921;-57
2022/06/11 14:38:29;;;;;;;;;;;;;;;23.74;37.85;98510.75;5056904;28;20368;-59
2022/06/11 14:41:23;;;;;;;;;;;;;;;23.93;39.77;98512.50;5057959;28;19929;-57
2022/06/11 14:44:15;;;;;;;;;;;;;;;23.67;40.65;98508.72;5055215;28;19921;-58
2022/06/11 14:50:41;;;;;;;;;;;;;;;24.41;35.87;98509.66;5053524;28;20370;-59
2022/06/11 14:53:30;;;;;;;;;;;;;;;24.09;39.01;98509.44;5050978;28;19988;-57
2022/06/11 14:56:23;;;;;;;;;;;;;;;24.04;39.34;98503.06;5060550;28;19939;-58
2022/06/11 14:59:54;;;;;;;;;;;;;;;24.33;38.19;98503.22;5056598;28;19929;-58
2022/06/11 15:02:49;;;;;;;;;;;;;;;24.64;34.57;98501.81;4979160;28;20421;-55
2022/06/11 15:05:47;;;;;;;;;;;;;;;24.60;37.07;98500.19;5057880;28;19924;-60
2022/06/11 15:08:38;;;;;;;;;;;;;;;24.56;34.73;98503.78;5059238;28;19974;-60
2022/06/11 15:11:30;;;;;;;;;;;;;;;24.48;37.24;98504.13;5060968;28;19936;-57
2022/06/11 15:14:36;;;;;;;;;;;;;;;23.90;39.29;98494.63;5052028;28;19925;-58
2022/06/11 15:17:28;;;;;;;;;;;;;;;23.95;37.03;98499.81;5047968;28;19920;-59
2022/06/11 15:20:19;;;;;;;;;;;;;;;24.49;36.66;98497.38;5053857;28;20079;-58
2022/06/11 15:23:12;;;;;;;;;;;;;;;24.36;37.32;98501.69;5066820;28;19924;-57
2022/06/11 15:26:01;;;;;;;;;;;;;;;23.86;39.69;98507.66;5054965;28;19927;-59
2022/06/11 15:29:02;;;;;;;;;;;;;;;23.90;38.80;98505.72;5044956;28;20383;-58
2022/06/11 15:31:55;;;;;;;;;;;;;;;23.93;39.36;98504.16;5046711;28;20122;-54
2022/06/11 15:34:59;;;;;;;;;;;;;;;23.98;38.12;98501.03;5042649;28;19934;-58
2022/06/11 15:37:50;;;;;;;;;;;;;;;24.12;38.73;98497.53;5061677;28;19920;-60
2022/06/11 15:40:41;;;;;;;;;;;;;;;23.86;39.78;98499.34;5051885;28;19920;-60
2022/06/11 15:43:31;;;;;;;;;;;;;;;23.85;39.81;98491.41;5072657;28;19932;-60
2022/06/11 15:46:27;;;;;;;;;;;;;;;24.03;37.29;98495.91;5062687;28;20360;-59
2022/06/11 15:49:29;;;;;;;;;;;;;;;24.05;38.56;98488.00;5066743;28;19932;-58
2022/06/11 15:52:33;;;;;;;;;;;;;;;23.82;39.07;98492.19;5066824;28;20013;-60